createdAt,value
2018-09-06T00:00:07.592Z,1005.59
2018-09-06T00:01:07.601Z,1005.58
2018-09-06T00:02:07.611Z,1005.54
2018-09-06T00:03:07.562Z,1005.57
2018-09-06T00:04:07.550Z,1005.52
2018-09-06T00:05:07.539Z,1005.53
2018-09-06T00:06:07.524Z,1005.51
2018-09-06T00:07:07.513Z,1005.52
2018-09-06T00:08:07.502Z,1005.47
2018-09-06T00:09:07.490Z,1005.48
2018-09-06T00:10:07.479Z,1005.47
2018-09-06T00:11:07.467Z,1005.44
2018-09-06T00:12:07.456Z,1005.46
2018-09-06T00:13:07.444Z,1005.49
2018-09-06T00:14:07.436Z,1005.52
2018-09-06T00:15:07.423Z,1005.49
2018-09-06T00:16:07.411Z,1005.51
2018-09-06T00:17:07.401Z,1005.53
2018-09-06T00:18:07.387Z,1005.49
2018-09-06T00:19:07.376Z,1005.48
2018-09-06T00:20:07.363Z,1005.44
2018-09-06T00:21:07.353Z,1005.43
2018-09-06T00:22:07.341Z,1005.37
2018-09-06T00:23:07.331Z,1005.36
2018-09-06T00:24:07.320Z,1005.35
2018-09-06T00:25:07.314Z,1005.38
2018-09-06T00:26:07.498Z,1005.31
2018-09-06T00:27:07.285Z,1005.32
2018-09-06T00:28:07.274Z,1005.31
2018-09-06T00:29:07.262Z,1005.31
2018-09-06T00:30:07.250Z,1005.27
2018-09-06T00:31:07.239Z,1005.27
2018-09-06T00:32:07.229Z,1005.27
2018-09-06T00:33:07.215Z,1005.26
2018-09-06T00:34:07.205Z,1005.25
2018-09-06T00:35:07.191Z,1005.26
2018-09-06T00:36:07.182Z,1005.25
2018-09-06T00:37:07.169Z,1005.25
2018-09-06T00:38:07.167Z,1005.28
2018-09-06T00:39:07.145Z,1005.2
2018-09-06T00:40:07.132Z,1005.23
2018-09-06T00:41:07.122Z,1005.17
2018-09-06T00:42:07.112Z,1005.16
2018-09-06T00:43:07.103Z,1005.18
2018-09-06T00:44:07.093Z,1005.19
2018-09-06T00:45:07.076Z,1005.14
2018-09-06T00:46:07.064Z,1005.17
2018-09-06T00:47:07.051Z,1005.16
2018-09-06T00:48:07.049Z,1005.12
2018-09-06T00:49:07.027Z,1005.1
2018-09-06T00:50:07.017Z,1005.09
2018-09-06T00:51:07.008Z,1005.08
2018-09-06T00:52:06.992Z,1005.1
2018-09-06T00:53:06.982Z,1005.06
2018-09-06T00:54:06.969Z,1005.02
2018-09-06T00:55:06.957Z,1005.04
2018-09-06T00:56:06.944Z,1005.04
2018-09-06T00:57:06.933Z,1005.04
2018-09-06T00:58:06.951Z,1005.07
2018-09-06T00:59:06.912Z,1005.07
2018-09-06T01:00:06.903Z,1005.08
2018-09-06T01:01:06.888Z,1005.08
2018-09-06T01:02:06.881Z,1005.1
2018-09-06T01:03:06.862Z,1005.1
2018-09-06T01:04:06.856Z,1005.08
2018-09-06T01:05:06.842Z,1005.03
2018-09-06T01:06:06.829Z,1005.07
2018-09-06T01:07:06.814Z,1005.04
2018-09-06T01:08:06.801Z,1005.02
2018-09-06T01:09:06.791Z,1005.07
2018-09-06T01:10:06.781Z,1005.04
2018-09-06T01:11:06.766Z,1005.03
2018-09-06T01:12:06.753Z,1005.05
2018-09-06T01:13:06.742Z,1005
2018-09-06T01:14:06.732Z,1005.06
2018-09-06T01:15:06.718Z,1005.04
2018-09-06T01:16:06.706Z,1005.07
2018-09-06T01:17:06.698Z,1005.03
2018-09-06T01:18:06.684Z,1005.09
2018-09-06T01:19:06.673Z,1005.13
2018-09-06T01:20:06.660Z,1005.15
2018-09-06T01:21:06.650Z,1005.2
2018-09-06T01:22:06.636Z,1005.24
2018-09-06T01:23:06.624Z,1005.21
2018-09-06T01:24:06.612Z,1005.16
2018-09-06T01:25:06.604Z,1005.14
2018-09-06T01:26:06.592Z,1005.08
2018-09-06T01:27:06.576Z,1005.05
2018-09-06T01:28:06.564Z,1005
2018-09-06T01:29:06.551Z,1005.03
2018-09-06T01:30:06.541Z,1005.05
2018-09-06T01:31:06.528Z,1005.08
2018-09-06T01:32:06.516Z,1005.07
2018-09-06T01:33:06.504Z,1005.11
2018-09-06T01:34:06.493Z,1005.08
2018-09-06T01:35:06.479Z,1005.07
2018-09-06T01:36:06.521Z,1005.03
2018-09-06T01:37:06.456Z,1005.01
2018-09-06T01:38:06.443Z,1004.99
2018-09-06T01:39:06.432Z,1004.95
2018-09-06T01:40:06.423Z,1004.96
2018-09-06T01:41:06.410Z,1004.95
2018-09-06T01:42:06.398Z,1004.94
2018-09-06T01:43:06.386Z,1004.98
2018-09-06T01:44:06.376Z,1004.95
2018-09-06T01:45:06.363Z,1004.95
2018-09-06T01:46:06.347Z,1004.95
2018-09-06T01:47:06.338Z,1004.97
2018-09-06T01:48:06.329Z,1004.9
2018-09-06T01:49:06.313Z,1004.93
2018-09-06T01:50:06.303Z,1004.86
2018-09-06T01:51:06.288Z,1004.85
2018-09-06T01:52:06.276Z,1004.84
2018-09-06T01:53:06.266Z,1004.84
2018-09-06T01:54:06.251Z,1004.83
2018-09-06T01:55:06.238Z,1004.86
2018-09-06T01:56:06.231Z,1004.84
2018-09-06T01:57:06.216Z,1004.82
2018-09-06T01:58:06.204Z,1004.82
2018-09-06T01:59:06.191Z,1004.83
2018-09-06T02:00:06.181Z,1004.85
2018-09-06T02:01:06.168Z,1004.84
2018-09-06T02:02:06.160Z,1004.81
2018-09-06T02:03:06.142Z,1004.83
2018-09-06T02:04:06.130Z,1004.77
2018-09-06T02:05:06.119Z,1004.8
2018-09-06T02:06:06.111Z,1004.8
2018-09-06T02:07:06.099Z,1004.81
2018-09-06T02:08:06.083Z,1004.87
2018-09-06T02:09:06.073Z,1004.89
2018-09-06T02:10:06.060Z,1004.92
2018-09-06T02:11:06.047Z,1004.86
2018-09-06T02:12:06.036Z,1004.84
2018-09-06T02:13:06.026Z,1004.79
2018-09-06T02:14:06.008Z,1004.76
2018-09-06T02:15:06.000Z,1004.73
2018-09-06T02:16:05.985Z,1004.71
2018-09-06T02:17:05.976Z,1004.7
2018-09-06T02:18:05.961Z,1004.74
2018-09-06T02:19:05.948Z,1004.71
2018-09-06T02:20:05.937Z,1004.72
2018-09-06T02:21:05.925Z,1004.74
2018-09-06T02:22:05.913Z,1004.73
2018-09-06T02:23:05.950Z,1004.73
2018-09-06T02:24:05.891Z,1004.7
2018-09-06T02:25:05.876Z,1004.69
2018-09-06T02:26:06.067Z,1004.7
2018-09-06T02:27:05.852Z,1004.69
2018-09-06T02:28:05.841Z,1004.72
2018-09-06T02:29:05.826Z,1004.74
2018-09-06T02:30:05.816Z,1004.72
2018-09-06T02:31:05.803Z,1004.77
2018-09-06T02:32:05.793Z,1004.74
2018-09-06T02:33:05.779Z,1004.72
2018-09-06T02:34:05.768Z,1004.69
2018-09-06T02:35:05.756Z,1004.67
2018-09-06T02:36:05.742Z,1004.65
2018-09-06T02:37:05.730Z,1004.6
2018-09-06T02:38:05.718Z,1004.59
2018-09-06T02:39:05.708Z,1004.56
2018-09-06T02:40:05.695Z,1004.6
2018-09-06T02:41:05.684Z,1004.62
2018-09-06T02:42:05.671Z,1004.62
2018-09-06T02:43:05.660Z,1004.63
2018-09-06T02:44:05.644Z,1004.61
2018-09-06T02:45:05.636Z,1004.62
2018-09-06T02:46:05.622Z,1004.61
2018-09-06T02:47:05.611Z,1004.61
2018-09-06T02:48:05.605Z,1004.58
2018-09-06T02:49:05.585Z,1004.54
2018-09-06T02:50:05.577Z,1004.54
2018-09-06T02:51:05.562Z,1004.57
2018-09-06T02:52:05.550Z,1004.58
2018-09-06T02:53:05.540Z,1004.56
2018-09-06T02:54:05.525Z,1004.57
2018-09-06T02:55:05.513Z,1004.57
2018-09-06T02:56:05.501Z,1004.56
2018-09-06T02:57:05.488Z,1004.57
2018-09-06T02:58:05.475Z,1004.58
2018-09-06T02:59:05.463Z,1004.55
2018-09-06T03:00:05.453Z,1004.54
2018-09-06T03:01:05.439Z,1004.5
2018-09-06T03:02:05.426Z,1004.53
2018-09-06T03:03:05.413Z,1004.46
2018-09-06T03:04:05.409Z,1004.46
2018-09-06T03:05:05.393Z,1004.48
2018-09-06T03:06:05.377Z,1004.43
2018-09-06T03:07:05.367Z,1004.44
2018-09-06T03:08:05.357Z,1004.47
2018-09-06T03:09:05.344Z,1004.46
2018-09-06T03:10:05.329Z,1004.44
2018-09-06T03:11:05.321Z,1004.42
2018-09-06T03:12:05.305Z,1004.33
2018-09-06T03:13:05.301Z,1004.34
2018-09-06T03:14:05.281Z,1004.34
2018-09-06T03:15:05.273Z,1004.33
2018-09-06T03:16:05.260Z,1004.35
2018-09-06T03:17:05.243Z,1004.29
2018-09-06T03:18:05.234Z,1004.32
2018-09-06T03:19:05.225Z,1004.28
2018-09-06T03:20:05.209Z,1004.25
2018-09-06T03:21:05.195Z,1004.23
2018-09-06T03:22:05.181Z,1004.23
2018-09-06T03:23:05.170Z,1004.19
2018-09-06T03:24:05.156Z,1004.25
2018-09-06T03:25:05.147Z,1004.2
2018-09-06T03:26:05.141Z,1004.23
2018-09-06T03:27:05.121Z,1004.23
2018-09-06T03:28:05.107Z,1004.22
2018-09-06T03:29:05.107Z,1004.29
2018-09-06T03:30:05.084Z,1004.3
2018-09-06T03:31:05.070Z,1004.3
2018-09-06T03:32:05.062Z,1004.3
2018-09-06T03:33:05.053Z,1004.3
2018-09-06T03:34:05.035Z,1004.27
2018-09-06T03:35:05.024Z,1004.33
2018-09-06T03:36:05.067Z,1004.35
2018-09-06T03:37:05.000Z,1004.32
2018-09-06T03:38:04.986Z,1004.34
2018-09-06T03:39:04.973Z,1004.35
2018-09-06T03:40:04.965Z,1004.35
2018-09-06T03:41:04.951Z,1004.36
2018-09-06T03:42:04.938Z,1004.35
2018-09-06T03:43:04.927Z,1004.36
2018-09-06T03:44:04.966Z,1004.44
2018-09-06T03:45:04.898Z,1004.49
2018-09-06T03:46:04.888Z,1004.56
2018-09-06T03:47:04.873Z,1004.6
2018-09-06T03:48:04.865Z,1004.59
2018-09-06T03:49:04.847Z,1004.63
2018-09-06T03:50:04.836Z,1004.62
2018-09-06T03:51:04.829Z,1004.66
2018-09-06T03:52:04.813Z,1004.65
2018-09-06T03:53:04.799Z,1004.68
2018-09-06T03:54:04.787Z,1004.66
2018-09-06T03:55:04.775Z,1004.65
2018-09-06T03:56:04.761Z,1004.7
2018-09-06T03:57:04.749Z,1004.68
2018-09-06T03:58:04.748Z,1004.62
2018-09-06T03:59:04.725Z,1004.58
2018-09-06T04:00:04.712Z,1004.62
2018-09-06T04:01:04.699Z,1004.61
2018-09-06T04:02:04.686Z,1004.63
2018-09-06T04:03:04.676Z,1004.58
2018-09-06T04:04:04.662Z,1004.64
2018-09-06T04:05:04.650Z,1004.63
2018-09-06T04:06:04.635Z,1004.66
2018-09-06T04:07:04.623Z,1004.63
2018-09-06T04:08:04.612Z,1004.61
2018-09-06T04:09:04.597Z,1004.54
2018-09-06T04:10:04.584Z,1004.59
2018-09-06T04:11:04.574Z,1004.52
2018-09-06T04:12:04.561Z,1004.55
2018-09-06T04:13:04.551Z,1004.56
2018-09-06T04:14:04.536Z,1004.56
2018-09-06T04:15:04.524Z,1004.58
2018-09-06T04:16:04.509Z,1004.61
2018-09-06T04:17:04.497Z,1004.61
2018-09-06T04:18:04.485Z,1004.63
2018-09-06T04:19:04.472Z,1004.64
2018-09-06T04:20:04.461Z,1004.63
2018-09-06T04:21:04.447Z,1004.67
2018-09-06T04:22:04.439Z,1004.71
2018-09-06T04:23:04.423Z,1004.68
2018-09-06T04:24:04.413Z,1004.63
2018-09-06T04:25:04.397Z,1004.63
2018-09-06T04:26:04.586Z,1004.56
2018-09-06T04:27:04.372Z,1004.61
2018-09-06T04:28:04.360Z,1004.55
2018-09-06T04:29:04.345Z,1004.54
2018-09-06T04:30:04.333Z,1004.51
2018-09-06T04:31:04.321Z,1004.5
2018-09-06T04:32:04.312Z,1004.51
2018-09-06T04:33:04.296Z,1004.5
2018-09-06T04:34:04.282Z,1004.52
2018-09-06T04:35:04.274Z,1004.53
2018-09-06T04:36:04.297Z,1004.54
2018-09-06T04:37:04.245Z,1004.55
2018-09-06T04:38:04.233Z,1004.56
2018-09-06T04:39:04.220Z,1004.56
2018-09-06T04:40:04.216Z,1004.53
2018-09-06T04:41:04.195Z,1004.53
2018-09-06T04:42:04.184Z,1004.51
2018-09-06T04:43:04.173Z,1004.53
2018-09-06T04:44:04.157Z,1004.46
2018-09-06T04:45:04.151Z,1004.43
2018-09-06T04:46:04.135Z,1004.46
2018-09-06T04:47:04.124Z,1004.49
2018-09-06T04:48:04.107Z,1004.47
2018-09-06T04:49:04.097Z,1004.48
2018-09-06T04:50:04.084Z,1004.45
2018-09-06T04:51:04.069Z,1004.5
2018-09-06T04:52:04.061Z,1004.48
2018-09-06T04:53:04.046Z,1004.45
2018-09-06T04:54:04.030Z,1004.47
2018-09-06T04:55:04.018Z,1004.45
2018-09-06T04:56:04.007Z,1004.44
2018-09-06T04:57:03.996Z,1004.4
2018-09-06T04:58:03.982Z,1004.42
2018-09-06T04:59:03.967Z,1004.41
2018-09-06T05:00:03.957Z,1004.44
2018-09-06T05:01:03.945Z,1004.44
2018-09-06T05:02:03.932Z,1004.46
2018-09-06T05:03:03.916Z,1004.48
2018-09-06T05:04:03.906Z,1004.51
2018-09-06T05:05:03.895Z,1004.57
2018-09-06T05:06:03.881Z,1004.59
2018-09-06T05:07:03.866Z,1004.57
2018-09-06T05:08:03.856Z,1004.56
2018-09-06T05:09:03.844Z,1004.58
2018-09-06T05:10:03.831Z,1004.59
2018-09-06T05:11:03.819Z,1004.58
2018-09-06T05:12:03.808Z,1004.65
2018-09-06T05:13:03.792Z,1004.65
2018-09-06T05:14:03.782Z,1004.61
2018-09-06T05:15:03.766Z,1004.65
2018-09-06T05:16:03.755Z,1004.69
2018-09-06T05:17:03.741Z,1004.71
2018-09-06T05:18:03.729Z,1004.71
2018-09-06T05:19:03.728Z,1004.71
2018-09-06T05:20:03.704Z,1004.68
2018-09-06T05:21:03.691Z,1004.71
2018-09-06T05:22:03.689Z,1004.7
2018-09-06T05:23:03.665Z,1004.7
2018-09-06T05:24:03.652Z,1004.72
2018-09-06T05:25:03.642Z,1004.72
2018-09-06T05:26:03.629Z,1004.73
2018-09-06T05:27:03.614Z,1004.75
2018-09-06T05:28:03.606Z,1004.77
2018-09-06T05:29:03.588Z,1004.8
2018-09-06T05:30:03.576Z,1004.77
2018-09-06T05:31:03.563Z,1004.78
2018-09-06T05:32:03.550Z,1004.75
2018-09-06T05:33:03.540Z,1004.77
2018-09-06T05:34:03.528Z,1004.79
2018-09-06T05:35:03.526Z,1004.81
2018-09-06T05:36:03.557Z,1004.87
2018-09-06T05:37:03.489Z,1004.92
2018-09-06T05:38:03.488Z,1004.91
2018-09-06T05:39:03.466Z,1004.91
2018-09-06T05:40:03.454Z,1004.95
2018-09-06T05:41:03.438Z,1004.97
2018-09-06T05:42:03.426Z,1004.98
2018-09-06T05:43:03.412Z,1005.01
2018-09-06T05:44:03.400Z,1004.99
2018-09-06T05:45:03.387Z,1004.95
2018-09-06T05:46:03.376Z,1005.01
2018-09-06T05:47:03.363Z,1004.99
2018-09-06T05:48:03.350Z,1005
2018-09-06T05:49:03.340Z,1005.01
2018-09-06T05:50:03.327Z,1005.02
2018-09-06T05:51:03.353Z,1005
2018-09-06T05:52:03.300Z,1004.99
2018-09-06T05:53:03.296Z,1005.04
2018-09-06T05:54:03.274Z,1005.03
2018-09-06T05:55:03.266Z,1004.95
2018-09-06T05:56:03.251Z,1004.9
2018-09-06T05:57:03.241Z,1004.91
2018-09-06T05:58:03.338Z,1004.95
2018-09-06T05:59:03.215Z,1004.98
2018-09-06T06:00:03.320Z,1004.97
2018-09-06T06:01:03.192Z,1004.97
2018-09-06T06:02:03.177Z,1004.96
2018-09-06T06:03:03.166Z,1004.99
2018-09-06T06:04:03.153Z,1004.99
2018-09-06T06:05:03.139Z,1004.94
2018-09-06T06:06:03.129Z,1004.94
2018-09-06T06:07:03.117Z,1004.95
2018-09-06T06:08:03.104Z,1004.94
2018-09-06T06:09:03.090Z,1004.92
2018-09-06T06:10:03.078Z,1004.98
2018-09-06T06:11:03.064Z,1004.91
2018-09-06T06:12:03.056Z,1004.91
2018-09-06T06:13:03.045Z,1004.82
2018-09-06T06:14:03.028Z,1004.83
2018-09-06T06:15:03.017Z,1004.81
2018-09-06T06:16:03.022Z,1004.74
2018-09-06T06:17:03.077Z,1004.72
2018-09-06T06:18:02.981Z,1004.73
2018-09-06T06:19:02.970Z,1004.73
2018-09-06T06:20:02.989Z,1004.73
2018-09-06T06:21:02.946Z,1004.74
2018-09-06T06:22:02.936Z,1004.73
2018-09-06T06:23:02.923Z,1004.7
2018-09-06T06:24:02.911Z,1004.72
2018-09-06T06:25:02.902Z,1004.71
2018-09-06T06:26:03.180Z,1004.75
2018-09-06T06:27:02.874Z,1004.7
2018-09-06T06:28:02.864Z,1004.73
2018-09-06T06:29:02.852Z,1004.74
2018-09-06T06:30:02.840Z,1004.73
2018-09-06T06:31:02.831Z,1004.69
2018-09-06T06:32:02.880Z,1004.73
2018-09-06T06:33:02.805Z,1004.71
2018-09-06T06:34:02.846Z,1004.75
2018-09-06T06:35:02.784Z,1004.75
2018-09-06T06:36:02.773Z,1004.78
2018-09-06T06:37:02.763Z,1004.82
2018-09-06T06:38:02.753Z,1004.84
2018-09-06T06:39:02.740Z,1004.81
2018-09-06T06:40:02.729Z,1004.8
2018-09-06T06:41:02.724Z,1004.75
2018-09-06T06:42:02.707Z,1004.73
2018-09-06T06:43:02.697Z,1004.68
2018-09-06T06:44:02.687Z,1004.69
2018-09-06T06:45:02.674Z,1004.71
2018-09-06T06:46:02.662Z,1004.68
2018-09-06T06:47:02.654Z,1004.73
2018-09-06T06:48:02.642Z,1004.74
2018-09-06T06:49:02.630Z,1004.71
2018-09-06T06:50:02.619Z,1004.71
2018-09-06T06:51:02.610Z,1004.72
2018-09-06T06:52:02.597Z,1004.71
2018-09-06T06:53:02.589Z,1004.68
2018-09-06T06:54:02.575Z,1004.69
2018-09-06T06:55:02.564Z,1004.65
2018-09-06T06:56:02.554Z,1004.55
2018-09-06T06:57:02.550Z,1004.47
2018-09-06T06:58:02.544Z,1004.43
2018-09-06T06:59:02.521Z,1004.37
2018-09-06T07:00:02.512Z,1004.34
2018-09-06T07:01:02.666Z,1004.28
2018-09-06T07:02:02.490Z,1004.2
2018-09-06T07:03:02.478Z,1004.21
2018-09-06T07:04:02.468Z,1004.12
2018-09-06T07:05:02.459Z,1004.1
2018-09-06T07:06:02.444Z,1004.08
2018-09-06T07:07:02.486Z,1004.03
2018-09-06T07:08:02.430Z,1004.05
2018-09-06T07:09:02.414Z,1004.05
2018-09-06T07:10:02.402Z,1004.07
2018-09-06T07:11:02.393Z,1004.16
2018-09-06T07:12:02.382Z,1004.15
2018-09-06T07:13:02.380Z,1004.18
2018-09-06T07:14:02.360Z,1004.17
2018-09-06T07:15:02.348Z,1004.11
2018-09-06T07:16:02.342Z,1004.09
2018-09-06T07:17:02.328Z,1004.06
2018-09-06T07:18:02.317Z,1004.1
2018-09-06T07:19:02.305Z,1004.11
2018-09-06T07:20:02.298Z,1004.16
2018-09-06T07:21:02.289Z,1004.17
2018-09-06T07:22:02.324Z,1004.17
2018-09-06T07:23:02.263Z,1004.2
2018-09-06T07:24:02.256Z,1004.18
2018-09-06T07:25:02.263Z,1004.23
2018-09-06T07:26:02.231Z,1004.23
2018-09-06T07:27:02.220Z,1004.21
2018-09-06T07:28:02.209Z,1004.22
2018-09-06T07:29:02.203Z,1004.22
2018-09-06T07:30:02.188Z,1004.23
2018-09-06T07:31:02.180Z,1004.2
2018-09-06T07:32:02.169Z,1004.22
2018-09-06T07:33:02.157Z,1004.21
2018-09-06T07:34:02.149Z,1004.24
2018-09-06T07:35:02.137Z,1004.28
2018-09-06T07:36:02.128Z,1004.29
2018-09-06T07:37:02.117Z,1004.29
2018-09-06T07:38:02.107Z,1004.28
2018-09-06T07:39:02.096Z,1004.31
2018-09-06T07:40:02.090Z,1004.32
2018-09-06T07:41:02.076Z,1004.33
2018-09-06T07:42:02.066Z,1004.37
2018-09-06T07:43:02.055Z,1004.39
2018-09-06T07:44:02.053Z,1004.39
2018-09-06T07:45:02.036Z,1004.39
2018-09-06T07:46:02.030Z,1004.41
2018-09-06T07:47:02.018Z,1004.38
2018-09-06T07:48:02.009Z,1004.4
2018-09-06T07:49:01.994Z,1004.4
2018-09-06T07:50:02.045Z,1004.39
2018-09-06T07:51:01.978Z,1004.39
2018-09-06T07:52:01.976Z,1004.37
2018-09-06T07:53:01.966Z,1004.38
2018-09-06T07:54:01.943Z,1004.35
2018-09-06T07:55:01.932Z,1004.32
2018-09-06T07:56:01.926Z,1004.31
2018-09-06T07:57:01.910Z,1004.28
2018-09-06T07:58:01.907Z,1004.31
2018-09-06T07:59:01.895Z,1004.3
2018-09-06T08:00:01.882Z,1004.3
2018-09-06T08:01:01.870Z,1004.27
2018-09-06T08:02:01.864Z,1004.28
2018-09-06T08:03:01.852Z,1004.32
2018-09-06T08:04:01.883Z,1004.35
2018-09-06T08:05:01.836Z,1004.4
2018-09-06T08:06:01.824Z,1004.41
2018-09-06T08:07:01.812Z,1004.43
2018-09-06T08:08:01.803Z,1004.5
2018-09-06T08:09:01.794Z,1004.5
2018-09-06T08:10:01.788Z,1004.51
2018-09-06T08:11:01.772Z,1004.53
2018-09-06T08:12:01.816Z,1004.52
2018-09-06T08:13:01.755Z,1004.59
2018-09-06T08:14:01.743Z,1004.56
2018-09-06T08:15:01.733Z,1004.56
2018-09-06T08:16:01.722Z,1004.56
2018-09-06T08:17:01.714Z,1004.58
2018-09-06T08:18:01.703Z,1004.59
2018-09-06T08:19:01.691Z,1004.57
2018-09-06T08:20:01.687Z,1004.57
2018-09-06T08:21:01.671Z,1004.57
2018-09-06T08:22:01.663Z,1004.54
2018-09-06T08:23:01.661Z,1004.54
2018-09-06T08:24:01.641Z,1004.55
2018-09-06T08:25:01.633Z,1004.58
2018-09-06T08:26:01.622Z,1004.58
2018-09-06T08:27:01.634Z,1004.61
2018-09-06T08:28:01.602Z,1004.57
2018-09-06T08:29:01.595Z,1004.6
2018-09-06T08:30:01.584Z,1004.59
2018-09-06T08:31:01.839Z,1004.63
2018-09-06T08:32:01.560Z,1004.65
2018-09-06T08:33:01.555Z,1004.68
2018-09-06T08:34:01.544Z,1004.64
2018-09-06T08:35:01.534Z,1004.61
2018-09-06T08:36:01.522Z,1004.64
2018-09-06T08:37:01.636Z,1004.64
2018-09-06T08:38:01.500Z,1004.61
2018-09-06T08:39:01.489Z,1004.66
2018-09-06T08:40:01.480Z,1004.63
2018-09-06T08:41:01.468Z,1004.67
2018-09-06T08:42:01.460Z,1004.68
2018-09-06T08:43:01.448Z,1004.71
2018-09-06T08:44:01.441Z,1004.71
2018-09-06T08:45:01.429Z,1004.68
2018-09-06T08:46:01.422Z,1004.69
2018-09-06T08:47:01.411Z,1004.66
2018-09-06T08:48:01.400Z,1004.63
2018-09-06T08:49:01.388Z,1004.61
2018-09-06T08:50:01.384Z,1004.62
2018-09-06T08:51:01.367Z,1004.62
2018-09-06T08:52:01.420Z,1004.64
2018-09-06T08:53:01.346Z,1004.59
2018-09-06T08:54:01.335Z,1004.63
2018-09-06T08:55:01.332Z,1004.65
2018-09-06T08:56:01.312Z,1004.67
2018-09-06T08:57:01.306Z,1004.69
2018-09-06T08:58:01.292Z,1004.7
2018-09-06T08:59:01.284Z,1004.7
2018-09-06T09:00:01.272Z,1004.68
2018-09-06T09:01:01.269Z,1004.66
2018-09-06T09:02:01.302Z,1004.69
2018-09-06T09:03:01.241Z,1004.7
2018-09-06T09:04:01.227Z,1004.64
2018-09-06T09:05:01.218Z,1004.66
2018-09-06T09:06:01.288Z,1004.64
2018-09-06T09:07:01.198Z,1004.61
2018-09-06T09:08:01.187Z,1004.6
2018-09-06T09:09:01.175Z,1004.58
2018-09-06T09:10:01.165Z,1004.6
2018-09-06T09:11:01.153Z,1004.6
2018-09-06T09:12:01.144Z,1004.59
2018-09-06T09:13:01.150Z,1004.57
2018-09-06T09:14:01.125Z,1004.53
2018-09-06T09:15:01.112Z,1004.52
2018-09-06T09:16:01.122Z,1004.55
2018-09-06T09:17:01.094Z,1004.54
2018-09-06T09:18:01.083Z,1004.54
2018-09-06T09:19:01.068Z,1004.53
2018-09-06T09:20:01.059Z,1004.51
2018-09-06T09:21:01.048Z,1004.53
2018-09-06T09:22:01.127Z,1004.52
2018-09-06T09:23:01.024Z,1004.53
2018-09-06T09:24:01.015Z,1004.5
2018-09-06T09:25:01.004Z,1004.5
2018-09-06T09:26:00.993Z,1004.48
2018-09-06T09:27:00.983Z,1004.5
2018-09-06T09:28:00.973Z,1004.51
2018-09-06T09:29:00.961Z,1004.46
2018-09-06T09:30:00.951Z,1004.49
2018-09-06T09:31:00.940Z,1004.47
2018-09-06T09:32:00.933Z,1004.46
2018-09-06T09:33:00.918Z,1004.47
2018-09-06T09:34:00.908Z,1004.42
2018-09-06T09:35:00.899Z,1004.42
2018-09-06T09:36:00.944Z,1004.38
2018-09-06T09:37:00.878Z,1004.34
2018-09-06T09:38:00.865Z,1004.33
2018-09-06T09:39:00.854Z,1004.3
2018-09-06T09:40:00.842Z,1004.31
2018-09-06T09:41:00.834Z,1004.29
2018-09-06T09:42:00.830Z,1004.32
2018-09-06T09:43:00.811Z,1004.29
2018-09-06T09:44:00.801Z,1004.29
2018-09-06T09:45:00.793Z,1004.3
2018-09-06T09:48:00.757Z,1004.28
2018-09-06T09:49:00.748Z,1004.3
2018-09-06T09:50:00.737Z,1004.27
2018-09-06T09:51:00.728Z,1004.24
2018-09-06T09:52:00.717Z,1004.23
2018-09-06T09:53:00.706Z,1004.25
2018-09-06T09:54:00.698Z,1004.31
2018-09-06T09:55:00.684Z,1004.24
2018-09-06T09:56:00.678Z,1004.22
2018-09-06T09:57:00.729Z,1004.23
2018-09-06T09:58:00.655Z,1004.26
2018-09-06T09:59:00.643Z,1004.23
2018-09-06T10:00:00.636Z,1004.29
2018-09-06T10:01:00.621Z,1004.28
2018-09-06T10:02:00.611Z,1004.31
2018-09-06T10:03:00.600Z,1004.31
2018-09-06T10:04:00.591Z,1004.33
2018-09-06T10:05:00.578Z,1004.35
2018-09-06T10:06:00.570Z,1004.35
2018-09-06T10:07:00.559Z,1004.38
2018-09-06T10:08:00.549Z,1004.37
2018-09-06T10:09:00.540Z,1004.34
2018-09-06T10:10:00.528Z,1004.37
2018-09-06T10:11:00.524Z,1004.39
2018-09-06T10:12:00.506Z,1004.41
2018-09-06T10:13:00.500Z,1004.36
2018-09-06T10:14:00.485Z,1004.37
2018-09-06T10:15:00.473Z,1004.4
2018-09-06T10:16:00.463Z,1004.39
2018-09-06T10:17:00.452Z,1004.43
2018-09-06T10:18:00.491Z,1004.45
2018-09-06T10:19:00.433Z,1004.46
2018-09-06T10:20:00.423Z,1004.47
2018-09-06T10:21:00.410Z,1004.47
2018-09-06T10:22:00.403Z,1004.45
2018-09-06T10:23:00.392Z,1004.43
2018-09-06T10:24:00.379Z,1004.48
2018-09-06T10:25:00.370Z,1004.4
2018-09-06T10:26:00.359Z,1004.4
2018-09-06T10:27:00.549Z,1004.43
2018-09-06T10:28:00.337Z,1004.45
2018-09-06T10:29:00.330Z,1004.46
2018-09-06T10:30:00.325Z,1004.43
2018-09-06T10:31:00.305Z,1004.45
2018-09-06T10:32:00.296Z,1004.46
2018-09-06T10:33:00.284Z,1004.43
2018-09-06T10:34:00.276Z,1004.43
2018-09-06T10:35:00.266Z,1004.4
2018-09-06T10:36:00.261Z,1004.41
2018-09-06T10:37:00.242Z,1004.42
2018-09-06T10:38:00.239Z,1004.45
2018-09-06T10:39:00.224Z,1004.42
2018-09-06T10:40:00.293Z,1004.43
2018-09-06T10:41:00.201Z,1004.4
2018-09-06T10:42:00.188Z,1004.37
2018-09-06T10:43:00.178Z,1004.39
2018-09-06T10:44:00.166Z,1004.42
2018-09-06T10:45:00.156Z,1004.39
2018-09-06T10:46:00.200Z,1004.36
2018-09-06T10:47:00.138Z,1004.35
2018-09-06T10:48:00.203Z,1004.33
2018-09-06T10:49:00.113Z,1004.37
2018-09-06T10:50:00.103Z,1004.37
2018-09-06T10:51:00.095Z,1004.35
2018-09-06T10:52:00.082Z,1004.34
2018-09-06T10:53:00.072Z,1004.37
2018-09-06T10:54:00.065Z,1004.31
2018-09-06T10:55:00.051Z,1004.33
2018-09-06T10:56:00.038Z,1004.36
2018-09-06T10:57:00.027Z,1004.35
2018-09-06T10:58:00.033Z,1004.31
2018-09-06T10:59:00.006Z,1004.25
2018-09-06T10:59:59.997Z,1004.3
2018-09-06T11:00:59.984Z,1004.26
2018-09-06T11:01:59.974Z,1004.32
2018-09-06T11:02:59.963Z,1004.33
2018-09-06T11:03:59.951Z,1004.36
2018-09-06T11:04:59.940Z,1004.37
2018-09-06T11:05:59.932Z,1004.33
2018-09-06T11:06:59.919Z,1004.38
2018-09-06T11:08:00.004Z,1004.36
2018-09-06T11:08:59.899Z,1004.36
2018-09-06T11:09:59.886Z,1004.34
2018-09-06T11:10:59.879Z,1004.29
2018-09-06T11:11:59.875Z,1004.28
2018-09-06T11:12:59.855Z,1004.3
2018-09-06T11:13:59.844Z,1004.31
2018-09-06T11:14:59.870Z,1004.3
2018-09-06T11:15:59.820Z,1004.33
2018-09-06T11:16:59.813Z,1004.34
2018-09-06T11:17:59.843Z,1004.32
2018-09-06T11:18:59.791Z,1004.3
2018-09-06T11:19:59.778Z,1004.34
2018-09-06T11:20:59.801Z,1004.35
2018-09-06T11:21:59.928Z,1004.3
2018-09-06T11:22:59.752Z,1004.34
2018-09-06T11:23:59.737Z,1004.34
2018-09-06T11:24:59.726Z,1004.33
2018-09-06T11:25:59.715Z,1004.3
2018-09-06T11:26:59.704Z,1004.33
2018-09-06T11:27:59.762Z,1004.37
2018-09-06T11:28:59.683Z,1004.37
2018-09-06T11:29:59.673Z,1004.33
2018-09-06T11:30:59.667Z,1004.33
2018-09-06T11:31:59.654Z,1004.32
2018-09-06T11:32:59.639Z,1004.33
2018-09-06T11:33:59.630Z,1004.33
2018-09-06T11:34:59.641Z,1004.28
2018-09-06T11:35:59.610Z,1004.28
2018-09-06T11:36:59.596Z,1004.29
2018-09-06T11:37:59.588Z,1004.24
2018-09-06T11:38:59.580Z,1004.25
2018-09-06T11:39:59.588Z,1004.25
2018-09-06T11:40:59.557Z,1004.23
2018-09-06T11:41:59.543Z,1004.2
2018-09-06T11:42:59.531Z,1004.22
2018-09-06T11:43:59.520Z,1004.21
2018-09-06T11:44:59.562Z,1004.24
2018-09-06T11:45:59.499Z,1004.25
2018-09-06T11:46:59.495Z,1004.22
2018-09-06T11:47:59.479Z,1004.27
2018-09-06T11:48:59.467Z,1004.2
2018-09-06T11:49:59.459Z,1004.24
2018-09-06T11:50:59.446Z,1004.21
2018-09-06T11:51:59.437Z,1004.2
2018-09-06T11:52:59.424Z,1004.22
2018-09-06T11:53:59.415Z,1004.18
2018-09-06T11:54:59.404Z,1004.21
2018-09-06T11:55:59.394Z,1004.17
2018-09-06T11:56:59.385Z,1004.21
2018-09-06T11:57:59.374Z,1004.23
2018-09-06T11:58:59.358Z,1004.25
2018-09-06T11:59:59.349Z,1004.27
2018-09-06T12:00:59.340Z,1004.26
2018-09-06T12:01:59.342Z,1004.25
2018-09-06T12:02:59.317Z,1004.26
2018-09-06T12:03:59.306Z,1004.27
2018-09-06T12:04:59.299Z,1004.26
2018-09-06T12:05:59.297Z,1004.28
2018-09-06T12:06:59.274Z,1004.26
2018-09-06T12:07:59.265Z,1004.27
2018-09-06T12:08:59.254Z,1004.25
2018-09-06T12:09:59.293Z,1004.24